Time;durP1;ratioP1;P1;durP2;ratioP2;P2;SDS_P1;SDS_P2;PMS_P1;PMS_P2;Temp;Humidity;BMP_temperature;BMP_pressure;BME280_temperature;BME280_humidity;BME280_pressure;Samples;Min_cycle;Max_cycle;Signal;HPM_P1;HPM_P2
2022/05/19 00:01:04;;;;;;;3.70;2.50;;;18.60;96.20;;;;;;4876568;29;20036;-77
2022/05/19 00:03:33;;;;;;;6.55;2.38;;;18.50;96.30;;;;;;4873084;29;20017;-77
2022/05/19 00:06:00;;;;;;;8.93;2.95;;;18.60;96.40;;;;;;4874458;29;20044;-79
2022/05/19 00:08:26;;;;;;;2.53;2.30;;;18.40;96.50;;;;;;4870628;29;20423;-78
2022/05/19 00:10:55;;;;;;;3.38;2.58;;;18.30;96.70;;;;;;4891923;29;20033;-79
2022/05/19 00:13:21;;;;;;;2.67;2.47;;;18.30;97.00;;;;;;4880772;29;20029;-78
2022/05/19 00:15:47;;;;;;;5.10;3.10;;;18.10;97.20;;;;;;4877364;29;20516;-78
2022/05/19 00:18:13;;;;;;;4.28;2.75;;;18.10;97.60;;;;;;4875412;29;20105;-82
2022/05/19 00:20:38;;;;;;;3.88;2.25;;;18.00;97.60;;;;;;4874331;29;20077;-82
2022/05/19 00:23:04;;;;;;;3.67;2.70;;;18.00;98.00;;;;;;4874181;29;20032;-81
2022/05/19 00:25:30;;;;;;;6.20;3.10;;;18.00;98.20;;;;;;4883479;29;20032;-82
2022/05/19 00:27:56;;;;;;;3.40;2.78;;;18.00;98.30;;;;;;4887629;29;20029;-82
2022/05/19 00:30:21;;;;;;;5.30;3.10;;;17.90;98.40;;;;;;4892534;29;20584;-81
2022/05/19 00:32:48;;;;;;;3.15;2.85;;;17.90;98.90;;;;;;4887737;29;20045;-82
2022/05/19 00:35:14;;;;;;;6.43;4.00;;;17.80;98.90;;;;;;4885364;29;20021;-82
2022/05/19 00:37:40;;;;;;;7.50;4.18;;;17.70;99.10;;;;;;4877577;29;20026;-82
2022/05/19 00:40:06;;;;;;;7.63;4.70;;;17.70;99.50;;;;;;4876582;29;20039;-82
2022/05/19 00:42:44;;;;;;;5.78;3.75;;;17.80;99.60;;;;;;4877180;29;20031;-82
2022/05/19 00:45:15;;;;;;;7.80;3.53;;;17.90;99.60;;;;;;4880857;29;20109;-82
2022/05/19 00:47:53;;;;;;;7.47;4.63;;;17.70;99.70;;;;;;4876232;29;20026;-82
2022/05/19 00:50:49;;;;;;;6.22;4.07;;;17.70;99.90;;;;;;4876253;29;20109;-82
2022/05/19 00:53:32;;;;;;;7.28;4.03;;;17.70;99.90;;;;;;4870583;29;20447;-81
2022/05/19 00:56:05;;;;;;;6.70;3.97;;;17.60;99.90;;;;;;4882803;29;20057;-81
2022/05/19 00:58:38;;;;;;;5.47;4.22;;;17.50;99.90;;;;;;4870682;29;20023;-82
2022/05/19 01:01:06;;;;;;;5.07;3.50;;;17.50;99.90;;;;;;4888066;29;20116;-82
2022/05/19 01:03:38;;;;;;;6.72;4.32;;;17.50;99.90;;;;;;4870021;29;20053;-82
2022/05/19 01:06:11;;;;;;;5.55;4.03;;;17.50;99.90;;;;;;4871595;29;20053;-82
2022/05/19 01:08:44;;;;;;;4.82;4.05;;;17.40;99.90;;;;;;4875541;29;20029;-81
2022/05/19 01:11:10;;;;;;;6.75;3.58;;;17.40;99.90;;;;;;4873067;29;20042;-82
2022/05/19 01:13:37;;;;;;;5.97;3.45;;;17.20;99.90;;;;;;4885481;29;20041;-82
2022/05/19 01:16:05;;;;;;;8.10;3.80;;;17.20;99.90;;;;;;4881123;29;20444;-82
2022/05/19 01:18:31;;;;;;;6.38;3.80;;;17.30;99.90;;;;;;4879924;29;20024;-82
2022/05/19 01:20:58;;;;;;;4.30;3.47;;;17.30;99.90;;;;;;4876077;29;20057;-83
2022/05/19 01:23:51;;;;;;;4.95;3.17;;;17.20;99.90;;;;;;4881164;29;20040;-80
2022/05/19 01:26:37;;;;;;;7.57;3.15;;;17.20;99.90;;;;;;4907195;29;20056;-82
2022/05/19 01:29:03;;;;;;;10.82;5.05;;;17.00;99.90;;;;;;4873537;29;20093;-82
2022/05/19 01:31:54;;;;;;;4.22;3.22;;;17.00;99.90;;;;;;4882785;29;20021;-83
2022/05/19 01:34:24;;;;;;;3.63;2.88;;;17.10;99.90;;;;;;4896136;29;20056;-82
2022/05/19 01:36:50;;;;;;;5.47;3.13;;;17.00;99.90;;;;;;4878623;29;20128;-83
2022/05/19 01:39:28;;;;;;;3.15;2.85;;;17.00;99.90;;;;;;4880038;29;20104;-81
2022/05/19 01:42:15;;;;;;;5.43;2.95;;;16.90;99.90;;;;;;4877372;29;20033;-82
2022/05/19 01:45:04;;;;;;;4.05;2.70;;;16.90;99.90;;;;;;4873617;29;20033;-82
2022/05/19 01:47:48;;;;;;;5.43;3.28;;;16.90;99.90;;;;;;4871416;29;20031;-82
2022/05/19 01:50:44;;;;;;;3.83;3.30;;;16.80;99.90;;;;;;4883697;29;20029;-81
2022/05/19 01:53:27;;;;;;;3.28;2.97;;;16.80;99.90;;;;;;4886816;29;20033;-83
2022/05/19 01:56:04;;;;;;;3.90;2.95;;;16.80;99.90;;;;;;4876361;29;20573;-82
2022/05/19 01:58:29;;;;;;;3.33;2.78;;;16.70;99.90;;;;;;4880365;29;20638;-82
2022/05/19 02:00:58;;;;;;;3.85;2.90;;;16.70;99.90;;;;;;4878265;29;20029;-82
2022/05/19 02:03:43;;;;;;;3.72;3.38;;;16.70;99.90;;;;;;4878004;29;20485;-82
2022/05/19 02:06:18;;;;;;;9.75;4.28;;;16.70;99.90;;;;;;4870922;29;20179;-82
2022/05/19 02:08:53;;;;;;;3.95;3.58;;;16.50;99.90;;;;;;4878737;29;20037;-80
2022/05/19 02:11:31;;;;;;;7.38;3.35;;;16.50;99.90;;;;;;4879866;29;20096;-82
2022/05/19 02:14:02;;;;;;;5.85;3.53;;;16.40;99.90;;;;;;4878880;29;20072;-81
2022/05/19 02:16:30;;;;;;;3.50;3.20;;;16.40;99.90;;;;;;4873919;29;20049;-82
2022/05/19 02:18:56;;;;;;;5.80;3.58;;;16.40;99.90;;;;;;4875407;29;20034;-82
2022/05/19 02:21:22;;;;;;;5.65;3.83;;;16.50;99.90;;;;;;4877136;29;20037;-82
2022/05/19 02:23:48;;;;;;;5.57;3.55;;;16.50;99.90;;;;;;4878767;29;20036;-82
2022/05/19 02:26:14;;;;;;;4.32;3.92;;;16.60;99.90;;;;;;4874676;29;20034;-84
2022/05/19 02:29:11;;;;;;;7.95;4.13;;;16.40;99.90;;;;;;4884814;29;20505;-82
2022/05/19 02:31:41;;;;;;;6.20;3.78;;;16.30;99.90;;;;;;4869338;29;20132;-83
2022/05/19 02:34:07;;;;;;;3.55;3.22;;;16.20;99.90;;;;;;4871321;29;20035;-81
2022/05/19 02:36:32;;;;;;;8.70;3.45;;;16.10;99.90;;;;;;4882328;29;20037;-81
2022/05/19 02:38:58;;;;;;;7.57;3.47;;;16.10;99.90;;;;;;4872732;29;20498;-83
2022/05/19 02:41:23;;;;;;;5.40;3.28;;;16.10;99.90;;;;;;4869750;29;20549;-82
2022/05/19 02:43:49;;;;;;;3.50;3.03;;;16.10;99.90;;;;;;4872528;29;20040;-83
2022/05/19 02:46:14;;;;;;;5.05;2.92;;;16.10;99.90;;;;;;4878334;29;20111;-83
2022/05/19 02:48:40;;;;;;;4.22;3.53;;;16.20;99.90;;;;;;4876939;29;20041;-82
2022/05/19 02:51:06;;;;;;;4.20;3.00;;;16.20;99.90;;;;;;4875475;29;20041;-82
2022/05/19 02:53:31;;;;;;;3.00;2.40;;;16.20;99.90;;;;;;4875016;29;20065;-81
2022/05/19 02:55:57;;;;;;;4.70;3.33;;;16.10;99.90;;;;;;4876744;29;20117;-83
2022/05/19 02:58:23;;;;;;;3.25;2.88;;;16.10;99.90;;;;;;4873862;29;20041;-82
2022/05/19 03:00:50;;;;;;;5.38;3.53;;;16.10;99.90;;;;;;4879057;29;20405;-82
2022/05/19 03:03:16;;;;;;;4.30;2.75;;;16.00;99.90;;;;;;4874176;29;20049;-82
2022/05/19 03:05:42;;;;;;;4.90;3.22;;;16.00;99.90;;;;;;4879107;29;20435;-82
2022/05/19 03:08:09;;;;;;;4.03;3.63;;;15.90;99.90;;;;;;4876804;29;20041;-81
2022/05/19 03:10:37;;;;;;;4.93;3.10;;;15.90;99.90;;;;;;4877523;29;20100;-81
2022/05/19 03:13:04;;;;;;;4.40;3.30;;;15.90;99.90;;;;;;4878068;29;20043;-82
2022/05/19 03:15:29;;;;;;;3.65;3.35;;;15.90;99.90;;;;;;4877481;29;20036;-82
2022/05/19 03:17:55;;;;;;;2.90;2.67;;;15.90;99.90;;;;;;4878699;29;20029;-82
2022/05/19 03:20:21;;;;;;;4.47;2.85;;;15.90;99.90;;;;;;4877380;29;20029;-84
2022/05/19 03:22:47;;;;;;;4.78;3.55;;;15.90;99.90;;;;;;4888657;29;20021;-82
2022/05/19 03:25:14;;;;;;;5.50;4.07;;;15.80;99.90;;;;;;4878538;29;20037;-82
2022/05/19 03:27:40;;;;;;;5.40;3.33;;;15.80;99.90;;;;;;4875387;29;20041;-82
2022/05/19 03:30:09;;;;;;;5.95;3.42;;;15.80;99.90;;;;;;4890586;29;20036;-82
2022/05/19 03:32:35;;;;;;;4.03;3.60;;;15.80;99.90;;;;;;4889537;29;20072;-81
2022/05/19 03:35:00;;;;;;;5.93;3.60;;;15.70;99.90;;;;;;4887607;29;20076;-81
2022/05/19 03:37:26;;;;;;;5.97;3.00;;;15.70;99.90;;;;;;4880856;29;20043;-82
2022/05/19 03:39:52;;;;;;;5.15;3.78;;;15.90;99.90;;;;;;4878227;29;20056;-82
2022/05/19 03:42:18;;;;;;;5.32;3.80;;;15.90;99.90;;;;;;4874463;29;20049;-84
2022/05/19 03:44:43;;;;;;;6.82;3.53;;;15.80;99.90;;;;;;4874313;29;20081;-82
2022/05/19 03:47:09;;;;;;;4.72;3.47;;;15.70;99.90;;;;;;4881277;29;20108;-81
2022/05/19 03:49:35;;;;;;;3.88;3.47;;;15.70;99.90;;;;;;4880677;29;20059;-81
2022/05/19 03:52:01;;;;;;;3.97;3.00;;;15.70;99.90;;;;;;4877757;29;20414;-82
2022/05/19 03:54:27;;;;;;;3.60;3.28;;;15.80;99.90;;;;;;4875217;29;20036;-83
2022/05/19 03:56:53;;;;;;;5.50;3.63;;;15.80;99.90;;;;;;4877479;29;20052;-82
2022/05/19 03:59:19;;;;;;;5.20;3.50;;;15.90;99.90;;;;;;4875393;29;20068;-83
2022/05/19 04:01:44;;;;;;;4.20;3.45;;;16.10;99.90;;;;;;4874697;29;20029;-82
2022/05/19 04:04:10;;;;;;;4.38;3.58;;;16.10;99.90;;;;;;4873858;29;20112;-82
2022/05/19 04:06:36;;;;;;;3.38;3.03;;;16.20;99.90;;;;;;4892413;29;20057;-82
2022/05/19 04:09:03;;;;;;;5.82;3.05;;;16.20;99.90;;;;;;4892571;29;20080;-82
2022/05/19 04:11:29;;;;;;;5.82;3.55;;;16.30;99.90;;;;;;4876921;29;20037;-82
2022/05/19 04:13:55;;;;;;;5.10;3.85;;;16.40;99.90;;;;;;4871002;29;20517;-83
2022/05/19 04:16:21;;;;;;;5.10;3.42;;;16.50;99.90;;;;;;4880054;29;20037;-81
2022/05/19 04:18:46;;;;;;;8.05;4.05;;;16.60;99.90;;;;;;4890200;29;20031;-81
2022/05/19 04:21:12;;;;;;;8.15;4.30;;;16.70;99.90;;;;;;4880099;29;20025;-82
2022/05/19 04:23:38;;;;;;;7.28;3.78;;;16.80;99.90;;;;;;4878635;29;20043;-82
2022/05/19 04:26:04;;;;;;;5.63;3.45;;;17.20;99.90;;;;;;4881482;29;20040;-82
2022/05/19 04:28:29;;;;;;;7.07;5.05;;;17.60;99.90;;;;;;4887975;29;20041;-83
2022/05/19 04:30:56;;;;;;;11.02;3.83;;;17.90;99.90;;;;;;4888345;29;20111;-83
2022/05/19 04:33:21;;;;;;;6.03;4.30;;;18.30;99.90;;;;;;4882666;29;20021;-83
2022/05/19 04:35:47;;;;;;;10.30;3.90;;;18.50;99.90;;;;;;4878875;29;20089;-82
2022/05/19 04:38:16;;;;;;;10.63;6.25;;;18.70;99.90;;;;;;4882104;29;20025;-82
2022/05/19 04:40:47;;;;;;;9.85;5.40;;;18.90;99.90;;;;;;4878495;29;20029;-83
2022/05/19 04:43:14;;;;;;;7.68;5.13;;;18.50;99.90;;;;;;4874424;29;20033;-84
2022/05/19 04:45:39;;;;;;;7.28;5.07;;;18.50;99.90;;;;;;4898001;29;20081;-83
2022/05/19 04:48:05;;;;;;;11.75;4.85;;;18.60;99.90;;;;;;4880190;29;20044;-82
2022/05/19 04:50:31;;;;;;;7.88;5.72;;;19.50;99.90;;;;;;4879131;29;20105;-81
2022/05/19 04:52:59;;;;;;;8.98;4.82;;;19.50;99.90;;;;;;4879916;29;20459;-82
2022/05/19 04:55:26;;;;;;;8.57;5.07;;;19.50;99.90;;;;;;4882591;29;20100;-81
2022/05/19 04:57:51;;;;;;;6.30;5.35;;;20.00;99.90;;;;;;4898863;29;20036;-82
2022/05/19 05:00:17;;;;;;;7.65;4.68;;;20.70;98.90;;;;;;4876556;29;20029;-82
2022/05/19 05:02:43;;;;;;;8.18;3.97;;;20.30;99.70;;;;;;4877967;29;20032;-83
2022/05/19 05:05:09;;;;;;;12.68;8.02;;;21.30;98.00;;;;;;4878773;29;20033;-82
2022/05/19 05:07:35;;;;;;;5.45;4.50;;;21.70;97.30;;;;;;4884055;29;20403;-81
2022/05/19 05:10:00;;;;;;;8.30;4.75;;;21.60;97.80;;;;;;4878363;29;20037;-82
2022/05/19 05:12:26;;;;;;;10.07;4.55;;;21.30;97.70;;;;;;4881880;29;20124;-82
2022/05/19 05:14:53;;;;;;;10.25;4.45;;;21.40;97.60;;;;;;4886859;29;20105;-82
2022/05/19 05:17:19;;;;;;;9.40;3.35;;;22.60;96.30;;;;;;4894937;29;20060;-82
2022/05/19 05:19:45;;;;;;;4.97;3.40;;;23.20;95.20;;;;;;4887738;29;20063;-82
2022/05/19 05:22:10;;;;;;;7.88;3.63;;;24.20;94.00;;;;;;4875595;29;20033;-83
2022/05/19 05:24:36;;;;;;;9.80;3.70;;;24.10;92.90;;;;;;4881838;29;20092;-82
2022/05/19 05:27:04;;;;;;;7.63;3.58;;;23.20;93.10;;;;;;4881495;29;20040;-82
2022/05/19 05:29:29;;;;;;;12.68;3.95;;;23.10;93.50;;;;;;4875742;29;20037;-83
2022/05/19 05:31:55;;;;;;;7.35;4.70;;;23.20;92.50;;;;;;4880932;29;20124;-83
2022/05/19 05:34:20;;;;;;;10.10;4.03;;;22.00;93.70;;;;;;4873343;29;20052;-82
2022/05/19 05:36:46;;;;;;;4.55;3.15;;;22.40;93.80;;;;;;4876000;29;20052;-81
2022/05/19 05:39:12;;;;;;;4.43;3.50;;;22.90;92.80;;;;;;4879930;29;20064;-83
2022/05/19 05:41:38;;;;;;;14.98;4.35;;;22.90;92.80;;;;;;4874818;29;20502;-82
2022/05/19 05:44:03;;;;;;;6.18;3.42;;;22.30;93.40;;;;;;4876459;29;20064;-82
2022/05/19 05:46:29;;;;;;;8.55;2.90;;;22.50;93.50;;;;;;4880954;29;20028;-82
2022/05/19 05:48:55;;;;;;;14.18;3.40;;;23.50;92.20;;;;;;4877947;29;20705;-82
2022/05/19 05:51:21;;;;;;;11.05;3.10;;;23.80;91.70;;;;;;4879647;29;20028;-81
2022/05/19 05:53:47;;;;;;;5.63;2.67;;;24.10;91.30;;;;;;4876547;29;20092;-81
2022/05/19 05:56:15;;;;;;;6.13;2.45;;;23.50;91.70;;;;;;4877653;29;20041;-81
2022/05/19 05:58:41;;;;;;;5.50;2.72;;;23.20;91.70;;;;;;4889975;29;20538;-81
2022/05/19 06:01:09;;;;;;;8.93;2.65;;;23.40;91.60;;;;;;4881002;29;20100;-82
2022/05/19 06:03:35;;;;;;;8.43;2.35;;;23.80;91.20;;;;;;4885579;29;20029;-81
2022/05/19 06:06:02;;;;;;;5.03;1.95;;;24.00;90.60;;;;;;4880662;29;20057;-81
2022/05/19 06:08:28;;;;;;;4.85;1.80;;;23.50;90.80;;;;;;4876482;29;20060;-82
2022/05/19 06:10:54;;;;;;;5.45;1.77;;;23.60;91.00;;;;;;4881409;29;20033;-81
2022/05/19 06:13:20;;;;;;;6.45;1.90;;;23.30;91.30;;;;;;4879579;29;20029;-80
2022/05/19 06:15:45;;;;;;;3.78;2.10;;;23.20;91.20;;;;;;4877865;29;20045;-82
2022/05/19 06:18:11;;;;;;;5.82;2.15;;;23.00;91.40;;;;;;4879392;29;20517;-81
2022/05/19 06:20:37;;;;;;;6.63;1.80;;;22.70;91.90;;;;;;4882149;29;20029;-81
2022/05/19 06:23:03;;;;;;;5.78;3.40;;;22.10;92.40;;;;;;4880435;29;20033;-82
2022/05/19 06:25:30;;;;;;;4.47;2.00;;;21.90;93.20;;;;;;4875355;29;20033;-82
2022/05/19 06:27:56;;;;;;;8.35;2.10;;;21.90;93.20;;;;;;4890830;29;20517;-82
2022/05/19 06:30:22;;;;;;;3.90;1.92;;;22.00;93.00;;;;;;4885636;29;20095;-81
2022/05/19 06:32:49;;;;;;;3.92;2.50;;;21.70;93.90;;;;;;4884316;29;20033;-80
2022/05/19 06:35:18;;;;;;;5.90;2.17;;;21.60;93.90;;;;;;4880027;29;20402;-80
2022/05/19 06:37:44;;;;;;;5.47;1.90;;;21.60;93.60;;;;;;4881475;29;20517;-79
2022/05/19 06:40:10;;;;;;;5.45;1.90;;;22.10;93.20;;;;;;4881827;29;20033;-81
2022/05/19 06:42:37;;;;;;;2.80;2.00;;;22.00;93.50;;;;;;4876495;29;20061;-82
2022/05/19 06:45:04;;;;;;;4.60;2.25;;;22.00;93.80;;;;;;4883105;29;20081;-80
2022/05/19 06:47:30;;;;;;;4.18;2.38;;;22.00;93.70;;;;;;4879973;29;20487;-81
2022/05/19 06:49:55;;;;;;;3.85;2.53;;;22.10;94.00;;;;;;4879559;29;20025;-81
2022/05/19 06:52:24;;;;;;;3.13;2.25;;;22.30;93.60;;;;;;4878564;29;20021;-81
2022/05/19 06:54:52;;;;;;;2.65;2.20;;;22.30;93.60;;;;;;4892327;29;20112;-82
2022/05/19 06:57:19;;;;;;;3.40;2.08;;;22.50;93.40;;;;;;4878389;29;20146;-81
2022/05/19 06:59:45;;;;;;;3.42;2.00;;;22.70;93.00;;;;;;4876306;29;20115;-82
2022/05/19 07:02:12;;;;;;;3.15;2.10;;;22.60;93.20;;;;;;4879174;29;20491;-82
2022/05/19 07:04:38;;;;;;;4.38;2.42;;;22.70;93.20;;;;;;4875650;29;20056;-82
2022/05/19 07:07:07;;;;;;;13.40;2.80;;;22.80;93.30;;;;;;4894358;29;20044;-82
2022/05/19 07:09:34;;;;;;;5.10;2.30;;;22.80;93.50;;;;;;4875406;29;20047;-81
2022/05/19 07:12:01;;;;;;;5.03;2.45;;;23.30;92.80;;;;;;4879803;29;20033;-77
2022/05/19 07:14:27;;;;;;;4.53;2.13;;;23.40;92.80;;;;;;4873289;29;20037;-77
2022/05/19 07:16:54;;;;;;;3.65;2.30;;;23.40;92.70;;;;;;4874271;29;20049;-77
2022/05/19 07:22:05;;;;;;;2.40;2.00;;;23.40;93.00;;;;;;4882099;29;20118;-79
2022/05/19 07:24:31;;;;;;;4.18;1.85;;;23.40;93.40;;;;;;4876822;29;20017;-78
2022/05/19 07:26:58;;;;;;;2.80;1.90;;;23.50;93.00;;;;;;4884839;29;20041;-76
2022/05/19 07:29:25;;;;;;;5.28;2.33;;;23.80;92.70;;;;;;4874503;29;20052;-77
2022/05/19 07:31:52;;;;;;;4.93;2.30;;;23.90;92.60;;;;;;4874997;29;20037;-78
2022/05/19 07:34:20;;;;;;;3.88;2.65;;;23.90;92.70;;;;;;4873655;29;20037;-77
2022/05/19 07:36:46;;;;;;;4.38;2.15;;;24.00;92.70;;;;;;4872068;29;20052;-77
2022/05/19 07:39:12;;;;;;;3.88;2.63;;;23.80;92.60;;;;;;4880942;29;20466;-77
2022/05/19 07:41:38;;;;;;;4.65;2.30;;;24.10;92.40;;;;;;4870987;29;20398;-78
2022/05/19 07:44:06;;;;;;;3.10;2.10;;;24.20;92.80;;;;;;4880213;29;20040;-76
2022/05/19 07:46:32;;;;;;;6.72;2.25;;;24.40;92.10;;;;;;4879381;29;20168;-77
2022/05/19 07:48:58;;;;;;;4.20;2.15;;;24.30;92.30;;;;;;4874196;29;20077;-77
2022/05/19 07:51:31;;;;;;;4.30;2.65;;;24.20;92.40;;;;;;4883680;29;20052;-77
2022/05/19 07:53:57;;;;;;;5.90;2.20;;;24.40;92.40;;;;;;4876970;29;20101;-78
2022/05/19 07:56:23;;;;;;;8.50;2.50;;;24.40;92.20;;;;;;4874284;29;20118;-78
2022/05/19 07:58:48;;;;;;;3.15;2.15;;;24.50;92.00;;;;;;4871312;29;20040;-78
2022/05/19 08:01:15;;;;;;;7.82;2.08;;;24.60;92.30;;;;;;4877437;29;20037;-78
2022/05/19 08:03:41;;;;;;;3.25;1.55;;;24.70;91.80;;;;;;4880101;29;20085;-79
2022/05/19 08:06:07;;;;;;;2.97;2.00;;;24.80;91.90;;;;;;4873871;29;20074;-78
2022/05/19 08:08:34;;;;;;;5.30;1.70;;;25.00;91.50;;;;;;4897664;29;20417;-78
2022/05/19 08:10:59;;;;;;;2.65;1.60;;;25.50;91.00;;;;;;4885232;29;20059;-77
2022/05/19 08:16:09;;;;;;;10.80;2.10;;;25.70;90.70;;;;;;4878308;29;20096;-78
2022/05/19 08:18:35;;;;;;;1.70;1.55;;;25.80;90.80;;;;;;4877530;29;20025;-78
2022/05/19 08:21:04;;;;;;;3.47;1.52;;;25.80;90.70;;;;;;4882649;29;20056;-76
2022/05/19 08:23:36;;;;;;;2.72;1.90;;;25.80;90.70;;;;;;4879864;29;20029;-77
2022/05/19 08:26:02;;;;;;;2.15;1.40;;;26.10;90.80;;;;;;4888725;29;20105;-78
2022/05/19 08:28:29;;;;;;;2.50;1.70;;;26.10;90.60;;;;;;4883336;29;20108;-78
2022/05/19 08:30:57;;;;;;;2.85;1.73;;;26.10;90.60;;;;;;4879718;29;20374;-78
2022/05/19 08:33:23;;;;;;;3.30;1.77;;;26.20;90.40;;;;;;4875779;29;20036;-78
2022/05/19 08:35:49;;;;;;;2.85;1.85;;;26.50;90.20;;;;;;4883495;29;20044;-81
2022/05/19 08:38:15;;;;;;;3.15;1.80;;;26.60;90.30;;;;;;4876209;29;20040;-77
2022/05/19 08:40:51;;;;;;;3.95;1.83;;;26.70;90.00;;;;;;4876562;29;20037;-76
2022/05/19 08:43:20;;;;;;;2.60;1.60;;;26.60;89.90;;;;;;4876625;29;20124;-77
2022/05/19 08:45:51;;;;;;;3.75;1.83;;;27.00;89.50;;;;;;4876983;29;20120;-78
2022/05/19 08:48:26;;;;;;;1.88;1.67;;;27.10;89.60;;;;;;4883819;29;20029;-78
2022/05/19 08:50:57;;;;;;;2.72;1.67;;;27.20;88.40;;;;;;4882184;29;20037;-78
2022/05/19 08:53:30;;;;;;;6.82;1.90;;;27.30;88.50;;;;;;4876263;29;20045;-78
2022/05/19 08:56:04;;;;;;;1.85;1.50;;;27.20;88.60;;;;;;4874939;29;20036;-80
2022/05/19 08:58:48;;;;;;;6.05;5.45;;;27.20;88.20;;;;;;4874888;29;20029;-79
2022/05/19 09:01:22;;;;;;;2.30;2.10;;;27.30;88.90;;;;;;4894058;29;20045;-80
2022/05/19 09:04:09;;;;;;;1.77;1.67;;;27.20;89.80;;;;;;4882921;29;20035;-78
2022/05/19 09:10:12;;;;;;;4.30;1.92;;;27.50;88.60;;;;;;4878291;29;20040;-79
2022/05/19 09:12:39;;;;;;;2.35;2.08;;;27.40;88.20;;;;;;4872295;29;20041;-78
2022/05/19 09:15:09;;;;;;;2.10;1.90;;;27.40;89.00;;;;;;4896766;29;20053;-77
2022/05/19 09:17:40;;;;;;;5.20;2.00;;;27.80;87.70;;;;;;4883400;29;20165;-79
2022/05/19 09:20:11;;;;;;;5.03;2.85;;;28.20;86.90;;;;;;4879258;29;20037;-78
2022/05/19 09:22:37;;;;;;;3.60;1.73;;;28.30;86.20;;;;;;4881226;29;20049;-76
2022/05/19 09:25:09;;;;;;;2.70;1.50;;;28.30;85.60;;;;;;4881818;29;20069;-78
2022/05/19 09:27:38;;;;;;;5.10;2.20;;;28.30;86.80;;;;;;4880818;29;20033;-76
2022/05/19 09:30:07;;;;;;;3.10;1.83;;;28.60;87.10;;;;;;4881618;29;20520;-78
2022/05/19 09:32:45;;;;;;;3.08;2.15;;;28.50;86.80;;;;;;4879039;29;20111;-78
2022/05/19 09:35:13;;;;;;;2.85;2.10;;;28.50;87.10;;;;;;4876978;29;20499;-78
2022/05/19 09:37:48;;;;;;;3.80;1.98;;;28.80;87.40;;;;;;4883274;29;20617;-79
2022/05/19 09:40:20;;;;;;;4.38;1.88;;;28.80;87.30;;;;;;4875853;29;20025;-78
2022/05/19 09:42:54;;;;;;;3.97;2.35;;;28.50;87.00;;;;;;4878000;29;20025;-77
2022/05/19 09:45:22;;;;;;;5.35;1.98;;;28.80;86.70;;;;;;4883920;29;20379;-78
2022/05/19 09:47:51;;;;;;;4.22;2.47;;;28.80;86.40;;;;;;4880347;29;20033;-77
2022/05/19 09:50:23;;;;;;;4.13;2.28;;;29.00;85.90;;;;;;4872626;29;20093;-78
2022/05/19 09:52:50;;;;;;;5.53;2.55;;;29.10;85.60;;;;;;4879121;29;20071;-79
2022/05/19 09:55:21;;;;;;;6.18;2.50;;;29.00;86.10;;;;;;4875181;29;20026;-78
2022/05/19 09:57:58;;;;;;;5.00;3.17;;;29.00;86.30;;;;;;4878301;29;20036;-77
2022/05/19 10:00:26;;;;;;;6.13;3.03;;;28.90;86.50;;;;;;4880887;29;20021;-78
2022/05/19 10:02:58;;;;;;;5.72;2.80;;;29.10;86.00;;;;;;4880339;29;20033;-77
2022/05/19 10:05:31;;;;;;;3.92;2.33;;;29.10;85.60;;;;;;4879437;29;20093;-78
2022/05/19 10:08:05;;;;;;;8.95;2.80;;;29.10;85.60;;;;;;4905172;29;20054;-76
2022/05/19 10:10:35;;;;;;;2.95;2.10;;;29.40;85.60;;;;;;4874389;29;20036;-77
2022/05/19 10:13:06;;;;;;;4.68;2.63;;;29.40;85.30;;;;;;4873284;29;20494;-78
2022/05/19 10:15:51;;;;;;;4.65;2.70;;;29.40;85.00;;;;;;4875113;29;20052;-77
2022/05/19 10:18:49;;;;;;;4.35;2.40;;;29.40;85.10;;;;;;4880849;29;20049;-77
2022/05/19 10:21:42;;;;;;;2.35;1.95;;;29.40;84.90;;;;;;4881382;29;20033;-77
2022/05/19 10:24:55;;;;;;;5.60;2.90;;;29.60;83.80;;;;;;4870367;29;20056;-78
2022/05/19 10:33:33;;;;;;;7.53;2.42;;;30.10;82.00;;;;;;4871815;29;20044;-77
2022/05/19 10:36:14;;;;;;;3.10;2.63;;;29.90;82.80;;;;;;4881094;29;20037;-77
2022/05/19 10:38:45;;;;;;;2.63;1.65;;;30.10;83.20;;;;;;4884555;29;20509;-77
2022/05/19 10:41:18;;;;;;;;;;;30.30;81.90;;;;;;4873376;29;20028;-77
2022/05/19 10:43:55;;;;;;;3.20;2.13;;;30.40;82.10;;;;;;4874390;29;19919;-77
2022/05/19 10:46:27;;;;;;;5.97;1.65;;;30.20;82.30;;;;;;4881968;29;20064;-78
2022/05/19 10:49:04;;;;;;;2.97;2.63;;;29.90;83.50;;;;;;4877420;29;20039;-75
2022/05/19 10:51:50;;;;;;;6.60;2.60;;;30.00;83.00;;;;;;4872141;29;20037;-77
2022/05/19 10:54:19;;;;;;;4.32;2.00;;;30.60;82.10;;;;;;4872520;29;20025;-78
2022/05/19 10:57:20;;;;;;;3.53;2.38;;;30.60;81.80;;;;;;4889382;29;20117;-78
2022/05/19 11:00:15;;;;;;;2.53;1.80;;;30.80;82.30;;;;;;4881772;29;20025;-77
2022/05/19 11:03:02;;;;;;;2.72;1.80;;;31.00;81.00;;;;;;4868564;29;20077;-78
2022/05/19 11:05:36;;;;;;;7.28;2.15;;;31.00;81.30;;;;;;4877392;29;20052;-78
2022/05/19 11:08:27;;;;;;;5.20;2.72;;;30.90;81.00;;;;;;4875092;29;20032;-78
2022/05/19 11:10:52;;;;;;;;;;;31.10;81.40;;;;;;4876984;29;20033;-80
2022/05/19 11:13:24;;;;;;;3.92;2.85;;;31.10;79.90;;;;;;4875181;29;19916;-78
2022/05/19 11:16:14;;;;;;;4.70;2.33;;;30.70;80.90;;;;;;4874743;29;20048;-77
2022/05/19 11:18:56;;;;;;;2.83;2.00;;;30.80;80.50;;;;;;4878967;29;20029;-77
2022/05/19 11:21:33;;;;;;;7.93;2.63;;;31.10;79.50;;;;;;4872225;29;20029;-78
2022/05/19 11:24:06;;;;;;;5.47;2.25;;;31.20;79.70;;;;;;4873953;29;20036;-78
2022/05/19 11:26:38;;;;;;;2.85;1.85;;;31.30;79.80;;;;;;4887573;29;20051;-78
2022/05/19 11:29:13;;;;;;;4.05;2.05;;;31.00;80.10;;;;;;4877711;29;20037;-78
2022/05/19 11:31:58;;;;;;;2.35;2.10;;;31.10;79.50;;;;;;4874160;29;20041;-78
2022/05/19 11:34:51;;;;;;;3.58;2.28;;;31.00;79.80;;;;;;4883043;29;20040;-77
2022/05/19 11:37:35;;;;;;;2.35;2.00;;;31.20;79.90;;;;;;4876565;29;20029;-77
2022/05/19 11:40:29;;;;;;;6.70;1.83;;;31.30;79.40;;;;;;4884645;29;20089;-78
2022/05/19 11:43:14;;;;;;;3.75;1.83;;;31.60;79.30;;;;;;4875742;29;20092;-77
2022/05/19 11:46:07;;;;;;;3.42;2.42;;;31.60;79.40;;;;;;4872949;29;20083;-78
2022/05/19 11:57:30;;;;;;;4.18;2.30;;;31.60;79.40;;;;;;4875074;29;20040;-77
2022/05/19 12:00:00;;;;;;;4.97;2.28;;;31.80;78.30;;;;;;4876600;29;20569;-79
2022/05/19 12:02:30;;;;;;;3.67;2.35;;;32.00;78.60;;;;;;4874431;29;20022;-77
2022/05/19 12:05:10;;;;;;;6.32;2.85;;;32.00;77.70;;;;;;4869992;29;20065;-77
2022/05/19 12:08:10;;;;;;;2.45;2.08;;;32.10;78.20;;;;;;4888315;29;20037;-77
2022/05/19 12:10:40;;;;;;;3.58;2.22;;;32.20;77.60;;;;;;4877344;29;20089;-77
2022/05/19 12:13:08;;;;;;;3.70;2.03;;;32.30;77.40;;;;;;4874375;29;20025;-77
2022/05/19 12:15:34;;;;;;;3.20;2.10;;;32.40;77.10;;;;;;4874199;29;20044;-77
2022/05/19 12:18:11;;;;;;;4.38;2.60;;;32.40;77.10;;;;;;4878018;29;20022;-78
2022/05/19 12:20:51;;;;;;;4.40;2.25;;;32.40;77.00;;;;;;4870167;29;20121;-77
2022/05/19 12:23:24;;;;;;;2.45;2.25;;;32.10;76.60;;;;;;4877643;29;20499;-77
2022/05/19 12:25:54;;;;;;;7.63;2.33;;;31.50;77.70;;;;;;4869381;29;20064;-78
2022/05/19 12:28:19;;;;;;;4.07;2.00;;;31.00;78.70;;;;;;4875300;29;20021;-78
2022/05/19 12:33:56;;;;;;;4.63;2.33;;;31.00;78.20;;;;;;4873151;29;20085;-77
2022/05/19 12:36:31;;;;;;;2.75;2.42;;;30.50;78.90;;;;;;4875829;29;20039;-77
2022/05/19 12:39:18;;;;;;;5.60;2.30;;;30.30;80.10;;;;;;4873584;29;20410;-78
2022/05/19 12:41:50;;;;;;;4.75;2.70;;;30.70;79.80;;;;;;4885024;29;20077;-77
2022/05/19 12:44:41;;;;;;;7.03;3.03;;;31.00;79.60;;;;;;4879595;29;20053;-76
2022/05/19 12:47:15;;;;;;;4.70;2.65;;;31.10;78.60;;;;;;4895263;29;20025;-77
2022/05/19 12:50:01;;;;;;;2.15;1.95;;;31.30;78.30;;;;;;4891151;29;20040;-77
2022/05/19 12:52:57;;;;;;;4.45;2.55;;;31.00;79.00;;;;;;4889491;29;20021;-77
2022/05/19 12:55:23;;;;;;;3.92;2.13;;;30.80;79.10;;;;;;4877372;29;20131;-77
2022/05/19 12:57:50;;;;;;;6.97;2.28;;;31.20;79.00;;;;;;4878114;29;20063;-77
2022/05/19 13:00:21;;;;;;;5.70;2.25;;;31.40;79.20;;;;;;4875395;29;20033;-78
2022/05/19 13:02:59;;;;;;;3.92;2.03;;;31.50;79.20;;;;;;4882823;29;20041;-75
2022/05/19 13:05:33;;;;;;;4.85;2.33;;;31.80;78.30;;;;;;4876088;29;20040;-79
2022/05/19 13:08:10;;;;;;;4.78;2.83;;;31.90;78.10;;;;;;4885851;29;20037;-77
2022/05/19 13:10:39;;;;;;;2.55;2.20;;;31.70;77.70;;;;;;4879505;29;20730;-78
2022/05/19 13:13:18;;;;;;;4.60;2.33;;;31.70;78.10;;;;;;4878962;29;20378;-78
2022/05/19 13:15:53;;;;;;;4.32;2.10;;;31.60;77.70;;;;;;4882669;29;20033;-78
2022/05/19 13:18:24;;;;;;;3.95;2.10;;;31.30;78.40;;;;;;4870805;29;20104;-78
2022/05/19 13:20:50;;;;;;;6.25;2.25;;;31.40;77.90;;;;;;4881681;29;20089;-78
2022/05/19 13:23:27;;;;;;;2.75;2.10;;;31.20;78.10;;;;;;4879463;29;20494;-77
2022/05/19 13:26:00;;;;;;;6.70;1.88;;;31.10;78.70;;;;;;4873506;29;20090;-79
2022/05/19 13:31:28;;;;;;;2.30;2.10;;;31.40;78.10;;;;;;4873957;29;20093;-79
2022/05/19 13:33:59;;;;;;;2.33;1.83;;;31.90;78.30;;;;;;4877107;29;20112;-78
2022/05/19 13:36:36;;;;;;;4.97;2.58;;;32.00;78.20;;;;;;4879442;29;20060;-78